Atlanta, Kansas
Current Conditions -  °F | °C
As of 5:15 PM on Wednesday 22 Oct 2014 (Local Time) from KEQA Reporting Station
Clear Clear  
Wind Chill: 77°   Ceiling: Unl
Heat Index: 78°   Visibility: 10mi
Dew Point: 54°   Wind: 15mph
Humidity: 44%   Direction: 200°SSW
Pressure: 30.05"   Gusts: NA
Location:  37.44°N, 96.76°W
Report Text: KEQA 222215Z AUTO 20013KT 10SM CLR 25/12 A3005 RMK AO2
Loading
Personal Weather Stations






























Interactive Weather Map New forecast layout! Learn more

10-Day Weather Forecast

Advertisements
Track Severe Weather on mobile